sensor_id;sensor_type;location;lat;lon;timestamp;temperature;humidity
42617;DHT22;28250;52.320;0.360;2023-04-21T00:01:04;5.30;99.90
42617;DHT22;28250;52.320;0.360;2023-04-21T00:03:33;5.30;99.90
42617;DHT22;28250;52.320;0.360;2023-04-21T00:06:03;5.20;99.90
42617;DHT22;28250;52.320;0.360;2023-04-21T00:08:35;5.20;99.90
42617;DHT22;28250;52.320;0.360;2023-04-21T00:11:07;5.10;99.90
42617;DHT22;28250;52.320;0.360;2023-04-21T00:13:34;5.20;99.90
42617;DHT22;28250;52.320;0.360;2023-04-21T00:16:01;5.10;99.90
42617;DHT22;28250;52.320;0.360;2023-04-21T00:18:28;5.10;99.90
42617;DHT22;28250;52.320;0.360;2023-04-21T00:20:54;5.10;99.90
42617;DHT22;28250;52.320;0.360;2023-04-21T00:23:20;5.30;99.90
42617;DHT22;28250;52.320;0.360;2023-04-21T00:25:46;5.20;99.90
42617;DHT22;28250;52.320;0.360;2023-04-21T00:28:12;5.20;99.90
42617;DHT22;28250;52.320;0.360;2023-04-21T00:30:38;5.20;99.90
42617;DHT22;28250;52.320;0.360;2023-04-21T00:33:04;5.10;99.90
42617;DHT22;28250;52.320;0.360;2023-04-21T00:35:30;5.10;99.90
42617;DHT22;28250;52.320;0.360;2023-04-21T00:37:56;5.10;99.90
42617;DHT22;28250;52.320;0.360;2023-04-21T00:40:22;5.20;99.90
42617;DHT22;28250;52.320;0.360;2023-04-21T00:42:48;5.20;99.90
42617;DHT22;28250;52.320;0.360;2023-04-21T00:45:14;5.20;99.90
42617;DHT22;28250;52.320;0.360;2023-04-21T00:47:41;5.10;99.90
42617;DHT22;28250;52.320;0.360;2023-04-21T00:50:08;5.20;99.90
42617;DHT22;28250;52.320;0.360;2023-04-21T00:52:38;5.10;99.90
42617;DHT22;28250;52.320;0.360;2023-04-21T00:55:07;5.10;99.90
42617;DHT22;28250;52.320;0.360;2023-04-21T00:57:37;5.10;99.90
42617;DHT22;28250;52.320;0.360;2023-04-21T01:00:04;5.20;99.90
42617;DHT22;28250;52.320;0.360;2023-04-21T01:02:33;5.10;99.90
42617;DHT22;28250;52.320;0.360;2023-04-21T01:04:59;5.10;99.90
42617;DHT22;28250;52.320;0.360;2023-04-21T01:07:26;5.10;99.90
42617;DHT22;28250;52.320;0.360;2023-04-21T01:09:52;5.00;99.90
42617;DHT22;28250;52.320;0.360;2023-04-21T01:12:18;5.00;99.90
42617;DHT22;28250;52.320;0.360;2023-04-21T01:14:44;5.00;99.90
42617;DHT22;28250;52.320;0.360;2023-04-21T01:17:10;5.00;99.90
42617;DHT22;28250;52.320;0.360;2023-04-21T01:19:39;5.10;99.90
42617;DHT22;28250;52.320;0.360;2023-04-21T01:22:08;5.00;99.90
42617;DHT22;28250;52.320;0.360;2023-04-21T01:24:44;5.00;99.90
42617;DHT22;28250;52.320;0.360;2023-04-21T01:27:17;5.00;99.90
42617;DHT22;28250;52.320;0.360;2023-04-21T01:29:46;5.10;99.90
42617;DHT22;28250;52.320;0.360;2023-04-21T01:32:19;5.10;99.90
42617;DHT22;28250;52.320;0.360;2023-04-21T01:34:52;5.10;99.90
42617;DHT22;28250;52.320;0.360;2023-04-21T01:37:21;5.10;99.90
42617;DHT22;28250;52.320;0.360;2023-04-21T01:39:53;5.10;99.90
42617;DHT22;28250;52.320;0.360;2023-04-21T01:42:22;5.20;99.90
42617;DHT22;28250;52.320;0.360;2023-04-21T01:44:50;5.00;99.90
42617;DHT22;28250;52.320;0.360;2023-04-21T01:47:19;5.10;99.90
42617;DHT22;28250;52.320;0.360;2023-04-21T01:49:45;5.10;99.90
42617;DHT22;28250;52.320;0.360;2023-04-21T01:52:11;5.20;99.90
42617;DHT22;28250;52.320;0.360;2023-04-21T01:54:38;5.10;99.90
42617;DHT22;28250;52.320;0.360;2023-04-21T01:57:04;5.10;99.90
42617;DHT22;28250;52.320;0.360;2023-04-21T01:59:31;5.10;99.90
42617;DHT22;28250;52.320;0.360;2023-04-21T02:01:57;5.10;99.90
42617;DHT22;28250;52.320;0.360;2023-04-21T02:04:23;5.10;99.90
42617;DHT22;28250;52.320;0.360;2023-04-21T02:06:49;5.20;99.90
42617;DHT22;28250;52.320;0.360;2023-04-21T02:09:15;5.10;99.90
42617;DHT22;28250;52.320;0.360;2023-04-21T02:11:41;5.10;99.90
42617;DHT22;28250;52.320;0.360;2023-04-21T02:14:07;5.20;99.90
42617;DHT22;28250;52.320;0.360;2023-04-21T02:16:33;5.20;99.90
42617;DHT22;28250;52.320;0.360;2023-04-21T02:18:59;5.20;99.90
42617;DHT22;28250;52.320;0.360;2023-04-21T02:21:26;5.30;99.90
42617;DHT22;28250;52.320;0.360;2023-04-21T02:23:52;5.40;99.90
42617;DHT22;28250;52.320;0.360;2023-04-21T02:26:19;5.40;99.90
42617;DHT22;28250;52.320;0.360;2023-04-21T02:28:46;5.30;99.90
42617;DHT22;28250;52.320;0.360;2023-04-21T02:31:15;5.40;99.90
42617;DHT22;28250;52.320;0.360;2023-04-21T02:33:41;5.50;99.90
42617;DHT22;28250;52.320;0.360;2023-04-21T02:36:10;5.60;99.90
42617;DHT22;28250;52.320;0.360;2023-04-21T02:38:36;5.60;99.90
42617;DHT22;28250;52.320;0.360;2023-04-21T02:41:02;5.60;99.90
42617;DHT22;28250;52.320;0.360;2023-04-21T02:43:28;5.60;99.90
42617;DHT22;28250;52.320;0.360;2023-04-21T02:45:58;5.60;99.90
42617;DHT22;28250;52.320;0.360;2023-04-21T02:48:24;5.70;99.90
42617;DHT22;28250;52.320;0.360;2023-04-21T02:50:51;5.80;99.90
42617;DHT22;28250;52.320;0.360;2023-04-21T02:53:19;5.90;99.90
42617;DHT22;28250;52.320;0.360;2023-04-21T02:55:45;5.90;99.90
42617;DHT22;28250;52.320;0.360;2023-04-21T02:58:11;6.00;99.90
42617;DHT22;28250;52.320;0.360;2023-04-21T03:00:37;6.10;99.90
42617;DHT22;28250;52.320;0.360;2023-04-21T03:03:03;6.10;99.90
42617;DHT22;28250;52.320;0.360;2023-04-21T03:05:29;6.20;99.90
42617;DHT22;28250;52.320;0.360;2023-04-21T03:07:55;6.20;99.90
42617;DHT22;28250;52.320;0.360;2023-04-21T03:10:21;6.30;99.90
42617;DHT22;28250;52.320;0.360;2023-04-21T03:12:47;6.30;99.90
42617;DHT22;28250;52.320;0.360;2023-04-21T03:15:13;6.40;99.90
42617;DHT22;28250;52.320;0.360;2023-04-21T03:17:40;6.40;99.90
42617;DHT22;28250;52.320;0.360;2023-04-21T03:20:07;6.40;99.90
42617;DHT22;28250;52.320;0.360;2023-04-21T03:22:34;6.40;99.90
42617;DHT22;28250;52.320;0.360;2023-04-21T03:25:01;6.40;99.90
42617;DHT22;28250;52.320;0.360;2023-04-21T03:27:27;6.40;99.90
42617;DHT22;28250;52.320;0.360;2023-04-21T03:29:53;6.40;99.90
42617;DHT22;28250;52.320;0.360;2023-04-21T03:32:19;6.50;99.90
42617;DHT22;28250;52.320;0.360;2023-04-21T03:34:46;6.60;99.90
42617;DHT22;28250;52.320;0.360;2023-04-21T03:37:12;6.60;99.90
42617;DHT22;28250;52.320;0.360;2023-04-21T03:39:38;6.60;99.90
42617;DHT22;28250;52.320;0.360;2023-04-21T03:42:06;6.60;99.90
42617;DHT22;28250;52.320;0.360;2023-04-21T03:44:32;6.60;99.90
42617;DHT22;28250;52.320;0.360;2023-04-21T03:47:00;6.70;99.90
42617;DHT22;28250;52.320;0.360;2023-04-21T03:49:29;6.70;99.90
42617;DHT22;28250;52.320;0.360;2023-04-21T03:51:55;6.70;99.90
42617;DHT22;28250;52.320;0.360;2023-04-21T03:54:21;6.60;99.90
42617;DHT22;28250;52.320;0.360;2023-04-21T03:56:47;6.50;99.90
42617;DHT22;28250;52.320;0.360;2023-04-21T03:59:13;6.60;99.90
42617;DHT22;28250;52.320;0.360;2023-04-21T04:01:39;6.40;99.90
42617;DHT22;28250;52.320;0.360;2023-04-21T04:04:06;6.50;99.90
42617;DHT22;28250;52.320;0.360;2023-04-21T04:06:32;6.50;99.90
42617;DHT22;28250;52.320;0.360;2023-04-21T04:09:00;6.50;99.90
42617;DHT22;28250;52.320;0.360;2023-04-21T04:11:30;6.50;99.90
42617;DHT22;28250;52.320;0.360;2023-04-21T04:13:57;6.50;99.90
42617;DHT22;28250;52.320;0.360;2023-04-21T04:16:23;6.60;99.90
42617;DHT22;28250;52.320;0.360;2023-04-21T04:18:49;6.70;99.90
42617;DHT22;28250;52.320;0.360;2023-04-21T04:21:16;6.70;99.90
42617;DHT22;28250;52.320;0.360;2023-04-21T04:23:42;6.70;99.90
42617;DHT22;28250;52.320;0.360;2023-04-21T04:26:09;6.70;99.90
42617;DHT22;28250;52.320;0.360;2023-04-21T04:28:36;6.60;99.90
42617;DHT22;28250;52.320;0.360;2023-04-21T04:31:02;6.70;99.90
42617;DHT22;28250;52.320;0.360;2023-04-21T04:33:28;6.70;99.90
42617;DHT22;28250;52.320;0.360;2023-04-21T04:35:54;6.70;99.90
42617;DHT22;28250;52.320;0.360;2023-04-21T04:38:20;6.70;99.90
42617;DHT22;28250;52.320;0.360;2023-04-21T04:40:56;6.80;99.90
42617;DHT22;28250;52.320;0.360;2023-04-21T04:43:26;6.80;99.90
42617;DHT22;28250;52.320;0.360;2023-04-21T04:45:53;6.80;99.90
42617;DHT22;28250;52.320;0.360;2023-04-21T04:48:19;6.80;99.90
42617;DHT22;28250;52.320;0.360;2023-04-21T04:50:45;6.80;99.90
42617;DHT22;28250;52.320;0.360;2023-04-21T04:53:11;6.80;99.90
42617;DHT22;28250;52.320;0.360;2023-04-21T04:55:37;6.80;99.90
42617;DHT22;28250;52.320;0.360;2023-04-21T04:58:03;6.80;99.90
42617;DHT22;28250;52.320;0.360;2023-04-21T05:00:29;6.80;99.90
42617;DHT22;28250;52.320;0.360;2023-04-21T05:02:56;6.80;99.90
42617;DHT22;28250;52.320;0.360;2023-04-21T05:05:22;6.90;99.90
42617;DHT22;28250;52.320;0.360;2023-04-21T05:07:49;6.80;99.90
42617;DHT22;28250;52.320;0.360;2023-04-21T05:10:16;6.80;99.90
42617;DHT22;28250;52.320;0.360;2023-04-21T05:12:42;6.90;99.90
42617;DHT22;28250;52.320;0.360;2023-04-21T05:15:08;6.90;99.90
42617;DHT22;28250;52.320;0.360;2023-04-21T05:17:34;6.90;99.90
42617;DHT22;28250;52.320;0.360;2023-04-21T05:20:00;6.80;99.90
42617;DHT22;28250;52.320;0.360;2023-04-21T05:22:29;6.90;99.90
42617;DHT22;28250;52.320;0.360;2023-04-21T05:24:55;6.90;99.90
42617;DHT22;28250;52.320;0.360;2023-04-21T05:27:21;6.90;99.90
42617;DHT22;28250;52.320;0.360;2023-04-21T05:29:47;7.00;99.90
42617;DHT22;28250;52.320;0.360;2023-04-21T05:32:13;6.90;99.90
42617;DHT22;28250;52.320;0.360;2023-04-21T05:34:39;6.90;99.90
42617;DHT22;28250;52.320;0.360;2023-04-21T05:37:05;6.90;99.90
42617;DHT22;28250;52.320;0.360;2023-04-21T05:39:31;7.00;99.90
42617;DHT22;28250;52.320;0.360;2023-04-21T05:41:57;7.00;99.90
42617;DHT22;28250;52.320;0.360;2023-04-21T05:44:23;6.90;99.90
42617;DHT22;28250;52.320;0.360;2023-04-21T05:46:50;6.90;99.90
42617;DHT22;28250;52.320;0.360;2023-04-21T05:49:16;7.00;99.90
42617;DHT22;28250;52.320;0.360;2023-04-21T05:51:42;7.00;99.90
42617;DHT22;28250;52.320;0.360;2023-04-21T05:54:08;7.00;99.90
42617;DHT22;28250;52.320;0.360;2023-04-21T05:56:34;7.10;99.90
42617;DHT22;28250;52.320;0.360;2023-04-21T05:59:00;7.20;99.90
42617;DHT22;28250;52.320;0.360;2023-04-21T06:01:26;7.10;99.90
42617;DHT22;28250;52.320;0.360;2023-04-21T06:03:52;7.10;99.90
42617;DHT22;28250;52.320;0.360;2023-04-21T06:06:18;7.10;99.90
42617;DHT22;28250;52.320;0.360;2023-04-21T06:08:45;7.10;99.90
42617;DHT22;28250;52.320;0.360;2023-04-21T06:11:11;7.10;99.90
42617;DHT22;28250;52.320;0.360;2023-04-21T06:13:37;7.20;99.90
42617;DHT22;28250;52.320;0.360;2023-04-21T06:16:03;7.20;99.90
42617;DHT22;28250;52.320;0.360;2023-04-21T06:18:29;7.30;99.90
42617;DHT22;28250;52.320;0.360;2023-04-21T06:20:55;7.40;99.90
42617;DHT22;28250;52.320;0.360;2023-04-21T06:23:22;7.60;99.90
42617;DHT22;28250;52.320;0.360;2023-04-21T06:26:04;7.40;99.90
42617;DHT22;28250;52.320;0.360;2023-04-21T06:28:35;7.50;99.90
42617;DHT22;28250;52.320;0.360;2023-04-21T06:31:02;7.50;99.90
42617;DHT22;28250;52.320;0.360;2023-04-21T06:33:29;7.50;99.90
42617;DHT22;28250;52.320;0.360;2023-04-21T06:35:55;7.70;99.90
42617;DHT22;28250;52.320;0.360;2023-04-21T06:38:21;8.00;99.90
42617;DHT22;28250;52.320;0.360;2023-04-21T06:40:47;8.10;99.90
42617;DHT22;28250;52.320;0.360;2023-04-21T06:43:13;8.30;99.90
42617;DHT22;28250;52.320;0.360;2023-04-21T06:45:39;8.40;99.90
42617;DHT22;28250;52.320;0.360;2023-04-21T06:48:05;8.40;99.90
42617;DHT22;28250;52.320;0.360;2023-04-21T06:50:32;8.50;99.90
42617;DHT22;28250;52.320;0.360;2023-04-21T06:52:58;8.50;99.90
42617;DHT22;28250;52.320;0.360;2023-04-21T06:55:24;8.50;99.90
42617;DHT22;28250;52.320;0.360;2023-04-21T06:57:50;8.60;99.90
42617;DHT22;28250;52.320;0.360;2023-04-21T07:00:16;8.50;99.90
42617;DHT22;28250;52.320;0.360;2023-04-21T07:02:42;8.40;99.90
42617;DHT22;28250;52.320;0.360;2023-04-21T07:05:08;8.40;99.90
42617;DHT22;28250;52.320;0.360;2023-04-21T07:07:35;8.40;99.90
42617;DHT22;28250;52.320;0.360;2023-04-21T07:10:01;8.40;99.90
42617;DHT22;28250;52.320;0.360;2023-04-21T07:12:27;8.30;99.90
42617;DHT22;28250;52.320;0.360;2023-04-21T07:14:53;8.50;99.90
42617;DHT22;28250;52.320;0.360;2023-04-21T07:17:19;8.70;99.90
42617;DHT22;28250;52.320;0.360;2023-04-21T07:19:45;8.80;99.90
42617;DHT22;28250;52.320;0.360;2023-04-21T07:22:11;8.90;99.90
42617;DHT22;28250;52.320;0.360;2023-04-21T07:24:37;9.10;99.90
42617;DHT22;28250;52.320;0.360;2023-04-21T07:27:04;9.00;99.90
42617;DHT22;28250;52.320;0.360;2023-04-21T07:29:30;9.10;99.90
42617;DHT22;28250;52.320;0.360;2023-04-21T07:31:57;9.20;99.90
42617;DHT22;28250;52.320;0.360;2023-04-21T07:34:23;9.20;99.90
42617;DHT22;28250;52.320;0.360;2023-04-21T07:36:51;9.00;99.90
42617;DHT22;28250;52.320;0.360;2023-04-21T07:39:17;8.80;99.90
42617;DHT22;28250;52.320;0.360;2023-04-21T07:41:43;8.70;99.90
42617;DHT22;28250;52.320;0.360;2023-04-21T07:44:09;8.60;99.90
42617;DHT22;28250;52.320;0.360;2023-04-21T07:46:35;8.70;99.90
42617;DHT22;28250;52.320;0.360;2023-04-21T07:49:01;8.70;99.90
42617;DHT22;28250;52.320;0.360;2023-04-21T07:51:27;8.80;99.90
42617;DHT22;28250;52.320;0.360;2023-04-21T07:53:53;8.90;99.90
42617;DHT22;28250;52.320;0.360;2023-04-21T07:56:19;8.70;99.90
42617;DHT22;28250;52.320;0.360;2023-04-21T07:58:45;8.70;99.90
42617;DHT22;28250;52.320;0.360;2023-04-21T08:01:11;8.70;99.90
42617;DHT22;28250;52.320;0.360;2023-04-21T08:03:37;8.80;99.90
42617;DHT22;28250;52.320;0.360;2023-04-21T08:06:03;8.70;99.90
42617;DHT22;28250;52.320;0.360;2023-04-21T08:08:29;8.70;99.90
42617;DHT22;28250;52.320;0.360;2023-04-21T08:10:56;8.70;99.90
42617;DHT22;28250;52.320;0.360;2023-04-21T08:13:22;8.60;99.90
42617;DHT22;28250;52.320;0.360;2023-04-21T08:15:51;8.60;99.90
42617;DHT22;28250;52.320;0.360;2023-04-21T08:18:17;8.60;99.90
42617;DHT22;28250;52.320;0.360;2023-04-21T08:20:44;8.70;99.90
42617;DHT22;28250;52.320;0.360;2023-04-21T08:23:13;8.90;99.90
42617;DHT22;28250;52.320;0.360;2023-04-21T08:25:39;9.10;99.90
42617;DHT22;28250;52.320;0.360;2023-04-21T08:28:06;9.30;99.90
42617;DHT22;28250;52.320;0.360;2023-04-21T08:30:32;9.40;99.90
42617;DHT22;28250;52.320;0.360;2023-04-21T08:32:58;9.40;99.90
42617;DHT22;28250;52.320;0.360;2023-04-21T08:35:24;9.30;99.90
42617;DHT22;28250;52.320;0.360;2023-04-21T08:37:51;9.20;99.90
42617;DHT22;28250;52.320;0.360;2023-04-21T08:40:17;9.10;99.90
42617;DHT22;28250;52.320;0.360;2023-04-21T08:42:44;9.10;99.90
42617;DHT22;28250;52.320;0.360;2023-04-21T08:45:10;9.20;99.90
42617;DHT22;28250;52.320;0.360;2023-04-21T08:47:40;9.20;99.90
42617;DHT22;28250;52.320;0.360;2023-04-21T08:50:11;9.20;99.90
42617;DHT22;28250;52.320;0.360;2023-04-21T08:52:39;9.30;99.90
42617;DHT22;28250;52.320;0.360;2023-04-21T08:55:05;9.40;99.90
42617;DHT22;28250;52.320;0.360;2023-04-21T08:57:32;9.40;99.90
42617;DHT22;28250;52.320;0.360;2023-04-21T08:59:58;9.40;99.90
42617;DHT22;28250;52.320;0.360;2023-04-21T09:02:24;9.30;99.90
42617;DHT22;28250;52.320;0.360;2023-04-21T09:04:51;9.30;99.90
42617;DHT22;28250;52.320;0.360;2023-04-21T09:07:36;9.30;99.90
42617;DHT22;28250;52.320;0.360;2023-04-21T09:10:04;9.40;99.90
42617;DHT22;28250;52.320;0.360;2023-04-21T09:12:31;9.50;99.90
42617;DHT22;28250;52.320;0.360;2023-04-21T09:14:57;9.50;99.90
42617;DHT22;28250;52.320;0.360;2023-04-21T09:17:29;9.50;99.90
42617;DHT22;28250;52.320;0.360;2023-04-21T09:20:20;9.50;99.90
42617;DHT22;28250;52.320;0.360;2023-04-21T09:22:48;9.30;99.90
42617;DHT22;28250;52.320;0.360;2023-04-21T09:25:19;9.20;99.90
42617;DHT22;28250;52.320;0.360;2023-04-21T09:27:46;9.10;99.90
42617;DHT22;28250;52.320;0.360;2023-04-21T09:30:13;9.20;99.90
42617;DHT22;28250;52.320;0.360;2023-04-21T09:32:43;9.20;99.90
42617;DHT22;28250;52.320;0.360;2023-04-21T09:35:09;9.20;99.90
42617;DHT22;28250;52.320;0.360;2023-04-21T09:37:37;9.10;99.90
42617;DHT22;28250;52.320;0.360;2023-04-21T09:40:04;9.00;99.90
42617;DHT22;28250;52.320;0.360;2023-04-21T09:42:33;9.00;99.90
42617;DHT22;28250;52.320;0.360;2023-04-21T09:45:00;9.20;99.90
42617;DHT22;28250;52.320;0.360;2023-04-21T09:47:28;9.40;99.90
42617;DHT22;28250;52.320;0.360;2023-04-21T09:49:57;9.70;99.90
42617;DHT22;28250;52.320;0.360;2023-04-21T09:52:26;9.60;99.90
42617;DHT22;28250;52.320;0.360;2023-04-21T09:54:58;9.70;99.90
42617;DHT22;28250;52.320;0.360;2023-04-21T09:57:30;9.80;99.90
42617;DHT22;28250;52.320;0.360;2023-04-21T10:00:00;9.90;99.90
42617;DHT22;28250;52.320;0.360;2023-04-21T10:02:31;10.00;99.90
42617;DHT22;28250;52.320;0.360;2023-04-21T10:05:00;10.00;99.90
42617;DHT22;28250;52.320;0.360;2023-04-21T10:07:26;9.80;99.90
42617;DHT22;28250;52.320;0.360;2023-04-21T10:09:54;9.80;99.90
42617;DHT22;28250;52.320;0.360;2023-04-21T10:12:22;9.90;99.90
42617;DHT22;28250;52.320;0.360;2023-04-21T10:14:52;9.80;99.90
42617;DHT22;28250;52.320;0.360;2023-04-21T10:17:23;9.70;99.90
42617;DHT22;28250;52.320;0.360;2023-04-21T10:19:52;9.70;99.90
42617;DHT22;28250;52.320;0.360;2023-04-21T10:22:34;9.80;99.90
42617;DHT22;28250;52.320;0.360;2023-04-21T10:25:03;10.10;99.90
42617;DHT22;28250;52.320;0.360;2023-04-21T10:27:39;10.50;99.90
42617;DHT22;28250;52.320;0.360;2023-04-21T10:30:23;11.00;99.90
42617;DHT22;28250;52.320;0.360;2023-04-21T10:33:02;11.60;99.90
42617;DHT22;28250;52.320;0.360;2023-04-21T10:35:58;11.50;99.90
42617;DHT22;28250;52.320;0.360;2023-04-21T10:38:33;11.80;99.90
42617;DHT22;28250;52.320;0.360;2023-04-21T10:43:53;11.40;99.90
42617;DHT22;28250;52.320;0.360;2023-04-21T10:46:36;11.30;99.90
42617;DHT22;28250;52.320;0.360;2023-04-21T10:49:26;11.10;99.90
42617;DHT22;28250;52.320;0.360;2023-04-21T10:54:29;11.10;99.90
42617;DHT22;28250;52.320;0.360;2023-04-21T10:57:17;11.10;99.90
42617;DHT22;28250;52.320;0.360;2023-04-21T10:59:46;11.20;99.90
42617;DHT22;28250;52.320;0.360;2023-04-21T11:02:15;11.10;99.90
42617;DHT22;28250;52.320;0.360;2023-04-21T11:04:43;10.90;99.90
42617;DHT22;28250;52.320;0.360;2023-04-21T11:09:40;11.20;99.90
42617;DHT22;28250;52.320;0.360;2023-04-21T11:12:07;11.10;99.90
42617;DHT22;28250;52.320;0.360;2023-04-21T11:14:36;11.10;99.90
42617;DHT22;28250;52.320;0.360;2023-04-21T11:17:04;11.60;99.90
42617;DHT22;28250;52.320;0.360;2023-04-21T11:19:36;11.90;99.90
42617;DHT22;28250;52.320;0.360;2023-04-21T11:22:03;11.70;99.90
42617;DHT22;28250;52.320;0.360;2023-04-21T11:24:33;11.60;99.90
42617;DHT22;28250;52.320;0.360;2023-04-21T11:26:59;11.80;99.90
42617;DHT22;28250;52.320;0.360;2023-04-21T11:29:28;12.00;99.90
42617;DHT22;28250;52.320;0.360;2023-04-21T11:31:54;12.60;99.90
42617;DHT22;28250;52.320;0.360;2023-04-21T11:34:21;12.50;99.90
42617;DHT22;28250;52.320;0.360;2023-04-21T11:36:49;12.30;99.90
42617;DHT22;28250;52.320;0.360;2023-04-21T11:39:16;12.40;99.90
42617;DHT22;28250;52.320;0.360;2023-04-21T11:41:48;11.80;99.90
42617;DHT22;28250;52.320;0.360;2023-04-21T11:44:36;11.80;99.90
42617;DHT22;28250;52.320;0.360;2023-04-21T11:47:16;11.60;99.90
42617;DHT22;28250;52.320;0.360;2023-04-21T11:49:58;12.10;99.90
42617;DHT22;28250;52.320;0.360;2023-04-21T11:57:32;11.80;99.90
42617;DHT22;28250;52.320;0.360;2023-04-21T12:00:04;12.10;99.90
42617;DHT22;28250;52.320;0.360;2023-04-21T12:02:36;12.20;99.90
42617;DHT22;28250;52.320;0.360;2023-04-21T12:05:04;13.40;99.90
42617;DHT22;28250;52.320;0.360;2023-04-21T12:07:45;13.50;99.90
42617;DHT22;28250;52.320;0.360;2023-04-21T12:10:14;13.00;99.90
42617;DHT22;28250;52.320;0.360;2023-04-21T12:12:42;13.10;99.90
42617;DHT22;28250;52.320;0.360;2023-04-21T12:15:10;12.70;99.90
42617;DHT22;28250;52.320;0.360;2023-04-21T12:17:45;12.60;99.90
42617;DHT22;28250;52.320;0.360;2023-04-21T12:20:14;13.50;99.90
42617;DHT22;28250;52.320;0.360;2023-04-21T12:22:42;13.70;99.90
42617;DHT22;28250;52.320;0.360;2023-04-21T12:25:08;13.10;99.90
42617;DHT22;28250;52.320;0.360;2023-04-21T12:27:34;12.50;99.90
42617;DHT22;28250;52.320;0.360;2023-04-21T12:30:01;12.20;99.90
42617;DHT22;28250;52.320;0.360;2023-04-21T12:32:29;12.30;99.90
42617;DHT22;28250;52.320;0.360;2023-04-21T12:34:55;12.50;99.90
42617;DHT22;28250;52.320;0.360;2023-04-21T12:37:21;13.10;99.90
42617;DHT22;28250;52.320;0.360;2023-04-21T12:39:47;12.90;99.90
42617;DHT22;28250;52.320;0.360;2023-04-21T12:42:13;13.50;99.90
42617;DHT22;28250;52.320;0.360;2023-04-21T12:44:39;14.00;99.90
42617;DHT22;28250;52.320;0.360;2023-04-21T12:47:05;13.40;99.90
42617;DHT22;28250;52.320;0.360;2023-04-21T12:49:31;12.80;99.90
42617;DHT22;28250;52.320;0.360;2023-04-21T12:51:57;13.10;99.90
42617;DHT22;28250;52.320;0.360;2023-04-21T12:54:24;13.60;99.90
42617;DHT22;28250;52.320;0.360;2023-04-21T12:56:50;14.00;99.90
42617;DHT22;28250;52.320;0.360;2023-04-21T12:59:16;14.70;99.90
42617;DHT22;28250;52.320;0.360;2023-04-21T13:01:42;15.30;99.90
42617;DHT22;28250;52.320;0.360;2023-04-21T13:04:08;14.80;99.90
42617;DHT22;28250;52.320;0.360;2023-04-21T13:06:34;14.80;99.90
42617;DHT22;28250;52.320;0.360;2023-04-21T13:09:00;15.70;99.90
42617;DHT22;28250;52.320;0.360;2023-04-21T13:11:26;15.60;99.90
42617;DHT22;28250;52.320;0.360;2023-04-21T13:13:52;15.30;99.90
42617;DHT22;28250;52.320;0.360;2023-04-21T13:16:18;14.40;99.90
42617;DHT22;28250;52.320;0.360;2023-04-21T13:18:45;14.10;99.90
42617;DHT22;28250;52.320;0.360;2023-04-21T13:21:12;14.00;99.90
42617;DHT22;28250;52.320;0.360;2023-04-21T13:23:38;14.00;99.90
42617;DHT22;28250;52.320;0.360;2023-04-21T13:26:04;14.80;99.90
42617;DHT22;28250;52.320;0.360;2023-04-21T13:28:31;15.40;99.90
42617;DHT22;28250;52.320;0.360;2023-04-21T13:30:57;15.50;99.90
42617;DHT22;28250;52.320;0.360;2023-04-21T13:33:23;15.40;99.90
42617;DHT22;28250;52.320;0.360;2023-04-21T13:35:50;15.90;99.90
42617;DHT22;28250;52.320;0.360;2023-04-21T13:38:16;16.40;99.90
42617;DHT22;28250;52.320;0.360;2023-04-21T13:40:42;16.10;99.90
42617;DHT22;28250;52.320;0.360;2023-04-21T13:43:10;16.50;99.90
42617;DHT22;28250;52.320;0.360;2023-04-21T13:45:37;16.40;99.90
42617;DHT22;28250;52.320;0.360;2023-04-21T13:48:03;16.70;99.90
42617;DHT22;28250;52.320;0.360;2023-04-21T13:50:31;15.70;99.90
42617;DHT22;28250;52.320;0.360;2023-04-21T13:52:57;14.70;99.90
42617;DHT22;28250;52.320;0.360;2023-04-21T13:55:23;13.80;99.90
42617;DHT22;28250;52.320;0.360;2023-04-21T13:57:49;14.40;99.90
42617;DHT22;28250;52.320;0.360;2023-04-21T14:00:15;14.80;99.90
42617;DHT22;28250;52.320;0.360;2023-04-21T14:02:42;14.90;99.90
42617;DHT22;28250;52.320;0.360;2023-04-21T14:05:08;15.40;99.90
42617;DHT22;28250;52.320;0.360;2023-04-21T14:07:34;16.00;99.90
42617;DHT22;28250;52.320;0.360;2023-04-21T14:10:00;16.50;99.90
42617;DHT22;28250;52.320;0.360;2023-04-21T14:12:26;16.30;99.90
42617;DHT22;28250;52.320;0.360;2023-04-21T14:14:52;16.60;99.90
42617;DHT22;28250;52.320;0.360;2023-04-21T14:17:18;16.10;99.90
42617;DHT22;28250;52.320;0.360;2023-04-21T14:19:44;16.10;99.90
42617;DHT22;28250;52.320;0.360;2023-04-21T14:22:11;15.00;99.90
42617;DHT22;28250;52.320;0.360;2023-04-21T14:24:37;14.80;99.90
42617;DHT22;28250;52.320;0.360;2023-04-21T14:27:03;13.90;99.90
42617;DHT22;28250;52.320;0.360;2023-04-21T14:29:30;14.60;99.90
42617;DHT22;28250;52.320;0.360;2023-04-21T14:31:56;15.60;99.90
42617;DHT22;28250;52.320;0.360;2023-04-21T14:34:24;16.00;99.90
42617;DHT22;28250;52.320;0.360;2023-04-21T14:36:52;15.40;99.90
42617;DHT22;28250;52.320;0.360;2023-04-21T14:39:19;15.10;99.90
42617;DHT22;28250;52.320;0.360;2023-04-21T14:41:45;14.60;99.90
42617;DHT22;28250;52.320;0.360;2023-04-21T14:44:11;14.50;99.90
42617;DHT22;28250;52.320;0.360;2023-04-21T14:46:37;14.30;99.90
42617;DHT22;28250;52.320;0.360;2023-04-21T14:49:03;14.70;99.90
42617;DHT22;28250;52.320;0.360;2023-04-21T14:51:29;14.70;99.90
42617;DHT22;28250;52.320;0.360;2023-04-21T14:53:56;15.30;99.90
42617;DHT22;28250;52.320;0.360;2023-04-21T14:56:22;15.70;99.90
42617;DHT22;28250;52.320;0.360;2023-04-21T14:58:48;16.60;99.90
42617;DHT22;28250;52.320;0.360;2023-04-21T15:01:14;16.50;99.90
42617;DHT22;28250;52.320;0.360;2023-04-21T15:03:41;15.70;99.90
42617;DHT22;28250;52.320;0.360;2023-04-21T15:06:07;15.20;99.90
42617;DHT22;28250;52.320;0.360;2023-04-21T15:08:33;15.00;99.90
42617;DHT22;28250;52.320;0.360;2023-04-21T15:10:59;14.70;99.90
42617;DHT22;28250;52.320;0.360;2023-04-21T15:13:25;14.50;99.90
42617;DHT22;28250;52.320;0.360;2023-04-21T15:15:51;14.50;99.90
42617;DHT22;28250;52.320;0.360;2023-04-21T15:18:17;15.10;99.90
42617;DHT22;28250;52.320;0.360;2023-04-21T15:20:43;15.40;99.90
42617;DHT22;28250;52.320;0.360;2023-04-21T15:23:13;15.20;99.90
42617;DHT22;28250;52.320;0.360;2023-04-21T15:25:39;14.40;99.90
42617;DHT22;28250;52.320;0.360;2023-04-21T15:28:06;14.40;99.90
42617;DHT22;28250;52.320;0.360;2023-04-21T15:30:33;14.80;99.90
42617;DHT22;28250;52.320;0.360;2023-04-21T15:32:59;15.00;99.90
42617;DHT22;28250;52.320;0.360;2023-04-21T15:35:26;15.50;99.90
42617;DHT22;28250;52.320;0.360;2023-04-21T15:37:52;15.30;99.90
42617;DHT22;28250;52.320;0.360;2023-04-21T15:40:18;15.00;99.90
42617;DHT22;28250;52.320;0.360;2023-04-21T15:42:44;15.00;99.90
42617;DHT22;28250;52.320;0.360;2023-04-21T15:45:10;14.50;99.90
42617;DHT22;28250;52.320;0.360;2023-04-21T15:47:36;13.70;99.90
42617;DHT22;28250;52.320;0.360;2023-04-21T15:50:02;13.60;99.90
42617;DHT22;28250;52.320;0.360;2023-04-21T15:52:29;13.40;99.90
42617;DHT22;28250;52.320;0.360;2023-04-21T15:54:55;13.20;99.90